Time;durP1;ratioP1;P1;durP2;ratioP2;P2;SDS_P1;SDS_P2;PMS_P1;PMS_P2;Temp;Humidity;BMP_temperature;BMP_pressure;BME280_temperature;BME280_humidity;BME280_pressure;Samples;Min_cycle;Max_cycle;Signal;HPM_P1;HPM_P2
2023/03/26 00:00:14;;;;;;;0.00;0.00;;;11.00;81.60;;;;;;4980601;28;20276;-81
2023/03/26 00:02:40;;;;;;;3.30;0.10;;;11.00;81.40;;;;;;4981842;28;20182;-79
2023/03/26 00:05:07;;;;;;;0.10;0.10;;;11.00;81.20;;;;;;4980245;28;20225;-80
2023/03/26 00:07:33;;;;;;;0.00;0.00;;;11.00;81.50;;;;;;4980670;28;20660;-79
2023/03/26 00:09:59;;;;;;;0.05;0.05;;;10.90;81.80;;;;;;4981155;28;20186;-80
2023/03/26 00:12:25;;;;;;;0.10;0.10;;;10.90;81.60;;;;;;4981040;28;20259;-80
2023/03/26 00:14:51;;;;;;;0.00;0.00;;;10.90;81.70;;;;;;4980305;28;20197;-80
2023/03/26 00:17:17;;;;;;;0.10;0.10;;;10.90;81.60;;;;;;4982243;28;20186;-80
2023/03/26 00:19:43;;;;;;;0.10;0.10;;;10.90;81.80;;;;;;4982316;28;21049;-78
2023/03/26 00:22:12;;;;;;;0.08;0.08;;;10.80;82.00;;;;;;4979457;28;20182;-80
2023/03/26 00:24:39;;;;;;;0.00;0.00;;;10.80;82.00;;;;;;4983520;28;20222;-79
2023/03/26 00:27:05;;;;;;;0.10;0.10;;;10.80;81.90;;;;;;4983179;28;20186;-79
2023/03/26 00:29:32;;;;;;;0.05;0.05;;;10.80;82.00;;;;;;4982038;28;20196;-80
2023/03/26 00:31:58;;;;;;;0.20;0.20;;;10.80;82.00;;;;;;4985094;28;20174;-79
2023/03/26 00:34:25;;;;;;;0.10;0.10;;;10.70;82.60;;;;;;4983882;28;20728;-79
2023/03/26 00:36:53;;;;;;;0.00;0.00;;;10.60;82.80;;;;;;4981563;28;20193;-80
2023/03/26 00:39:22;;;;;;;0.00;0.00;;;10.60;82.40;;;;;;4986627;28;20265;-80
2023/03/26 00:41:53;;;;;;;0.00;0.00;;;10.60;82.30;;;;;;4983411;28;20633;-80
2023/03/26 00:44:19;;;;;;;0.00;0.00;;;10.60;82.40;;;;;;4978420;28;20610;-78
2023/03/26 00:46:45;;;;;;;0.00;0.00;;;10.60;82.30;;;;;;4981856;28;20178;-80
2023/03/26 00:49:13;;;;;;;0.00;0.00;;;10.70;81.90;;;;;;4980688;28;20539;-80
2023/03/26 00:51:40;;;;;;;0.00;0.00;;;10.70;81.90;;;;;;4977629;28;20725;-79
2023/03/26 00:54:07;;;;;;;0.10;0.10;;;10.70;81.90;;;;;;4978971;28;20218;-79
2023/03/26 00:56:33;;;;;;;0.00;0.00;;;10.70;81.90;;;;;;4984967;28;20201;-79
2023/03/26 00:58:59;;;;;;;0.10;0.10;;;10.70;81.70;;;;;;4977743;28;20264;-80
2023/03/26 01:01:27;;;;;;;0.00;0.00;;;10.60;81.60;;;;;;4983619;28;20210;-80
2023/03/26 01:03:57;;;;;;;0.00;0.00;;;10.60;81.60;;;;;;4978277;28;20567;-81
2023/03/26 01:06:31;;;;;;;0.00;0.00;;;10.60;81.00;;;;;;4982653;28;20261;-81
2023/03/26 01:09:03;;;;;;;0.00;0.00;;;10.60;81.10;;;;;;4980171;28;20265;-81
2023/03/26 01:11:34;;;;;;;0.05;0.05;;;10.60;81.00;;;;;;4983587;28;20182;-81
2023/03/26 01:14:11;;;;;;;0.10;0.10;;;10.70;80.90;;;;;;4975136;28;20214;-80
2023/03/26 01:16:48;;;;;;;0.10;0.10;;;10.60;80.90;;;;;;4983881;28;20217;-79
2023/03/26 01:19:39;;;;;;;0.65;0.00;;;10.70;81.00;;;;;;4982342;28;20609;-81
2023/03/26 01:22:09;;;;;;;0.10;0.10;;;10.70;80.90;;;;;;4978884;28;20684;-80
2023/03/26 01:24:36;;;;;;;0.00;0.00;;;10.60;81.30;;;;;;4982028;28;20231;-80
2023/03/26 01:27:16;;;;;;;0.13;0.13;;;10.60;81.40;;;;;;4977730;28;20253;-80
2023/03/26 01:29:54;;;;;;;0.10;0.10;;;10.50;81.50;;;;;;4977969;28;20189;-80
2023/03/26 01:32:32;;;;;;;0.00;0.00;;;10.60;81.60;;;;;;4982389;28;20186;-79
2023/03/26 01:35:24;;;;;;;1.43;0.00;;;10.60;81.70;;;;;;4981930;28;20710;-79
2023/03/26 01:38:28;;;;;;;0.40;0.10;;;10.60;81.50;;;;;;4927617;29;20949;-79
2023/03/26 01:41:08;;;;;;;0.10;0.10;;;10.60;81.80;;;;;;4936062;29;20535;-80
2023/03/26 01:44:08;;;;;;;0.10;0.10;;;10.50;81.90;;;;;;4932840;29;20219;-80
2023/03/26 01:46:35;;;;;;;0.10;0.10;;;10.50;81.80;;;;;;4934135;29;20205;-80
2023/03/26 01:49:03;;;;;;;0.10;0.10;;;10.60;82.20;;;;;;4942111;29;20337;-79
2023/03/26 01:51:32;;;;;;;0.00;0.00;;;10.60;82.20;;;;;;4937115;29;20211;-79
2023/03/26 01:54:00;;;;;;;0.10;0.10;;;10.60;82.00;;;;;;4940035;29;20945;-79
2023/03/26 01:56:37;;;;;;;0.00;0.00;;;10.60;82.20;;;;;;4935518;29;20313;-78
2023/03/26 01:59:27;;;;;;;0.00;0.00;;;10.60;82.00;;;;;;4936604;29;20203;-79
2023/03/26 02:02:03;;;;;;;0.03;0.03;;;10.60;82.20;;;;;;4936833;29;20673;-80
2023/03/26 02:04:57;;;;;;;0.10;0.10;;;10.70;82.50;;;;;;4936807;29;20238;-80
2023/03/26 02:07:40;;;;;;;0.00;0.00;;;10.60;82.60;;;;;;4930416;29;20207;-80
2023/03/26 02:10:14;;;;;;;0.10;0.10;;;10.60;82.60;;;;;;4932697;29;20196;-81
2023/03/26 02:12:42;;;;;;;0.10;0.10;;;10.50;82.90;;;;;;4926596;29;20226;-80
2023/03/26 02:15:09;;;;;;;0.10;0.10;;;10.40;83.20;;;;;;4953637;28;20230;-81
2023/03/26 02:17:35;;;;;;;0.10;0.10;;;10.40;83.60;;;;;;4980413;28;21011;-78
2023/03/26 02:20:04;;;;;;;0.30;0.17;;;10.40;83.50;;;;;;4980909;28;20185;-80
2023/03/26 02:22:30;;;;;;;0.10;0.10;;;10.30;83.80;;;;;;4974903;28;20185;-80
2023/03/26 02:24:56;;;;;;;0.10;0.10;;;10.20;84.00;;;;;;4978114;28;20186;-81
2023/03/26 02:27:21;;;;;;;0.45;0.10;;;10.20;84.50;;;;;;4984519;28;20257;-80
2023/03/26 02:29:49;;;;;;;0.10;0.10;;;10.10;84.50;;;;;;4976682;28;20194;-81
2023/03/26 02:32:15;;;;;;;1.23;0.10;;;10.10;84.40;;;;;;4982029;28;20201;-80
2023/03/26 02:34:41;;;;;;;0.10;0.10;;;10.10;84.40;;;;;;4976655;28;20218;-80
2023/03/26 02:37:08;;;;;;;0.10;0.10;;;10.20;84.30;;;;;;4980322;28;20189;-80
2023/03/26 02:39:34;;;;;;;0.13;0.13;;;10.20;84.40;;;;;;4981669;28;20682;-80
2023/03/26 02:42:00;;;;;;;0.35;0.22;;;10.20;84.10;;;;;;4980422;28;20198;-81
2023/03/26 02:44:26;;;;;;;0.25;0.25;;;10.20;84.50;;;;;;4976864;28;20308;-79
2023/03/26 02:46:52;;;;;;;0.13;0.13;;;10.20;84.40;;;;;;4979491;28;20241;-80
2023/03/26 02:49:17;;;;;;;0.10;0.10;;;10.30;84.20;;;;;;4979308;28;20719;-80
2023/03/26 02:51:43;;;;;;;0.10;0.10;;;10.30;83.90;;;;;;4975716;28;20198;-80
2023/03/26 02:54:09;;;;;;;0.13;0.13;;;10.30;84.10;;;;;;4978980;28;20705;-79
2023/03/26 02:56:35;;;;;;;0.10;0.10;;;10.30;84.10;;;;;;4977376;28;20226;-78
2023/03/26 02:59:01;;;;;;;0.20;0.20;;;10.30;84.20;;;;;;4979335;28;20188;-78
2023/03/26 03:01:29;;;;;;;0.10;0.10;;;10.30;84.20;;;;;;4975381;28;20181;-79
2023/03/26 03:03:55;;;;;;;0.10;0.10;;;10.30;84.40;;;;;;4980956;28;20182;-80
2023/03/26 03:06:21;;;;;;;0.10;0.10;;;10.20;84.10;;;;;;4982397;28;20185;-79
2023/03/26 03:08:47;;;;;;;0.20;0.20;;;10.20;84.00;;;;;;4981035;28;20236;-79
2023/03/26 03:11:16;;;;;;;0.17;0.17;;;10.20;84.00;;;;;;4975870;28;20764;-80
2023/03/26 03:13:42;;;;;;;0.10;0.10;;;10.10;84.10;;;;;;4981628;28;20822;-80
2023/03/26 03:16:09;;;;;;;0.20;0.20;;;10.00;84.50;;;;;;4978332;28;20189;-79
2023/03/26 03:18:35;;;;;;;0.10;0.10;;;10.00;84.30;;;;;;4978644;28;20588;-77
2023/03/26 03:21:01;;;;;;;0.50;0.20;;;9.90;84.40;;;;;;4980308;28;20232;-79
2023/03/26 03:23:27;;;;;;;0.30;0.30;;;9.80;84.70;;;;;;4978736;28;20186;-79
2023/03/26 03:25:55;;;;;;;0.20;0.20;;;9.80;85.00;;;;;;4978490;28;20233;-80
2023/03/26 03:28:22;;;;;;;0.33;0.30;;;9.80;84.80;;;;;;4973903;28;20182;-78
2023/03/26 03:30:51;;;;;;;0.30;0.30;;;9.70;85.00;;;;;;4980223;28;20180;-79
2023/03/26 03:33:21;;;;;;;0.20;0.20;;;9.70;85.00;;;;;;4978523;28;20247;-78
2023/03/26 03:35:48;;;;;;;0.30;0.30;;;9.60;85.30;;;;;;4973861;28;20182;-79
2023/03/26 03:38:18;;;;;;;0.30;0.30;;;9.50;85.50;;;;;;4975840;28;20185;-79
2023/03/26 03:40:43;;;;;;;0.20;0.20;;;9.50;85.80;;;;;;4979651;28;20278;-80
2023/03/26 03:43:09;;;;;;;0.20;0.20;;;9.50;85.80;;;;;;4978828;28;20209;-77
2023/03/26 03:45:35;;;;;;;0.33;0.33;;;9.40;86.00;;;;;;4977341;28;20202;-78
2023/03/26 03:48:01;;;;;;;0.20;0.20;;;9.40;86.10;;;;;;4977889;28;20205;-80
2023/03/26 03:50:27;;;;;;;0.20;0.20;;;9.40;86.10;;;;;;4976356;28;20185;-80
2023/03/26 03:52:52;;;;;;;0.20;0.20;;;9.40;86.40;;;;;;4979029;28;20185;-80
2023/03/26 03:55:18;;;;;;;0.20;0.20;;;9.30;86.40;;;;;;4979115;28;20951;-80
2023/03/26 03:57:45;;;;;;;0.23;0.23;;;9.30;86.30;;;;;;4977870;28;20184;-81
2023/03/26 04:00:11;;;;;;;0.27;0.27;;;9.30;86.40;;;;;;4975881;28;20178;-80
2023/03/26 04:02:37;;;;;;;0.37;0.37;;;9.30;86.40;;;;;;4977764;28;20193;-80
2023/03/26 04:05:04;;;;;;;0.30;0.30;;;9.30;86.40;;;;;;4981843;28;20243;-80
2023/03/26 04:07:31;;;;;;;0.27;0.27;;;9.30;86.40;;;;;;4978850;28;20686;-81
2023/03/26 04:10:04;;;;;;;1.70;0.40;;;9.30;86.60;;;;;;4976312;28;20225;-81
2023/03/26 04:12:31;;;;;;;0.27;0.27;;;9.30;86.70;;;;;;4979037;28;20193;-81
2023/03/26 04:14:57;;;;;;;0.13;0.13;;;9.20;86.70;;;;;;4978769;28;20736;-80
2023/03/26 04:17:23;;;;;;;0.40;0.40;;;9.30;86.70;;;;;;4978670;28;20569;-81
2023/03/26 04:19:51;;;;;;;0.30;0.30;;;9.30;86.80;;;;;;4977027;28;20186;-80
2023/03/26 04:22:18;;;;;;;0.43;0.43;;;9.30;86.80;;;;;;4977916;28;20186;-80
2023/03/26 04:24:44;;;;;;;0.50;0.50;;;9.30;86.80;;;;;;4979165;28;20253;-82
2023/03/26 04:27:17;;;;;;;0.67;0.67;;;9.30;86.80;;;;;;4979609;28;20286;-77
2023/03/26 04:29:46;;;;;;;0.70;0.40;;;9.30;86.60;;;;;;4982329;28;20185;-79
2023/03/26 04:32:28;;;;;;;0.50;0.50;;;9.30;87.30;;;;;;4980313;28;20210;-79
2023/03/26 04:34:59;;;;;;;0.50;0.50;;;9.30;86.80;;;;;;4981410;28;20212;-79
2023/03/26 04:37:38;;;;;;;2.90;0.43;;;9.30;86.80;;;;;;4981959;28;20194;-79
2023/03/26 04:40:12;;;;;;;0.53;0.53;;;9.30;86.70;;;;;;4977718;28;20181;-80
2023/03/26 04:42:44;;;;;;;0.77;0.50;;;9.30;86.70;;;;;;4987407;28;20173;-80
2023/03/26 04:45:12;;;;;;;0.50;0.50;;;9.40;86.60;;;;;;4983353;28;20285;-80
2023/03/26 04:47:38;;;;;;;0.50;0.50;;;9.40;86.20;;;;;;4979012;28;20178;-79
2023/03/26 04:50:08;;;;;;;1.63;0.50;;;9.40;86.20;;;;;;4981868;28;20764;-80
2023/03/26 04:52:34;;;;;;;0.60;0.50;;;9.50;86.00;;;;;;4983385;28;20184;-79
2023/03/26 04:55:00;;;;;;;0.40;0.40;;;9.50;85.50;;;;;;4983329;28;20214;-79
2023/03/26 04:57:31;;;;;;;0.30;0.30;;;9.60;85.40;;;;;;4981005;28;20198;-79
2023/03/26 04:59:57;;;;;;;0.50;0.50;;;9.60;85.00;;;;;;4984619;28;20746;-79
2023/03/26 05:02:23;;;;;;;0.40;0.40;;;9.60;84.80;;;;;;4980151;28;20190;-80
2023/03/26 05:04:49;;;;;;;0.60;0.60;;;9.60;84.90;;;;;;4982527;28;20836;-81
2023/03/26 05:07:22;;;;;;;0.60;0.60;;;9.60;84.60;;;;;;4980099;28;20269;-81
2023/03/26 05:09:48;;;;;;;0.50;0.50;;;9.70;84.10;;;;;;4975293;28;20182;-80
2023/03/26 05:12:15;;;;;;;0.73;0.60;;;9.80;83.60;;;;;;4982248;28;20179;-81
2023/03/26 05:14:40;;;;;;;0.73;0.73;;;9.80;83.60;;;;;;4981566;28;20264;-80
2023/03/26 05:17:09;;;;;;;0.60;0.60;;;9.80;83.20;;;;;;4979782;28;20185;-81
2023/03/26 05:19:36;;;;;;;0.80;0.80;;;9.90;82.80;;;;;;4981453;28;20209;-81
2023/03/26 05:22:02;;;;;;;2.73;0.90;;;9.90;82.70;;;;;;4978829;28;21892;-79
2023/03/26 05:24:27;;;;;;;0.70;0.70;;;10.00;82.50;;;;;;4981227;28;20185;-81
2023/03/26 05:26:54;;;;;;;0.55;0.55;;;10.00;82.90;;;;;;4974421;28;20210;-80
2023/03/26 05:29:21;;;;;;;0.77;0.77;;;10.10;83.00;;;;;;4980919;28;20232;-80
2023/03/26 05:31:47;;;;;;;0.80;0.80;;;10.00;83.20;;;;;;4974990;28;21393;-79
2023/03/26 05:34:14;;;;;;;1.00;1.00;;;10.00;83.20;;;;;;4975385;28;20241;-79
2023/03/26 05:36:41;;;;;;;0.87;0.87;;;9.90;83.50;;;;;;4974596;28;21640;-80
2023/03/26 05:39:07;;;;;;;0.70;0.70;;;9.90;83.80;;;;;;4974464;28;20198;-81
2023/03/26 05:41:34;;;;;;;1.00;1.00;;;9.80;84.10;;;;;;4978003;28;20236;-78
2023/03/26 05:44:00;;;;;;;1.10;1.00;;;9.80;84.10;;;;;;4979805;28;20645;-80
2023/03/26 05:46:26;;;;;;;0.90;0.90;;;9.80;84.50;;;;;;4976920;28;21559;-79
2023/03/26 05:48:52;;;;;;;1.07;1.07;;;9.80;84.20;;;;;;4974544;28;20676;-81
2023/03/26 05:51:19;;;;;;;1.27;1.10;;;9.80;84.30;;;;;;4969705;28;20249;-79
2023/03/26 05:53:45;;;;;;;0.90;0.90;;;9.90;84.40;;;;;;4964277;28;20768;-79
2023/03/26 05:56:11;;;;;;;0.90;0.90;;;9.90;83.90;;;;;;4971279;28;20201;-79
2023/03/26 05:58:37;;;;;;;1.13;1.03;;;9.90;83.70;;;;;;4972215;28;20210;-81
2023/03/26 06:01:07;;;;;;;0.77;0.77;;;9.90;83.70;;;;;;4966459;28;20749;-80
2023/03/26 06:03:35;;;;;;;0.90;0.90;;;10.00;83.40;;;;;;4965818;28;20197;-80
2023/03/26 06:06:02;;;;;;;1.20;0.90;;;10.00;82.80;;;;;;4966072;28;20209;-79
2023/03/26 06:08:29;;;;;;;0.53;0.53;;;10.00;82.60;;;;;;4967102;28;20590;-80
2023/03/26 06:11:02;;;;;;;0.80;0.80;;;10.00;82.60;;;;;;4963817;28;20201;-81
2023/03/26 06:13:28;;;;;;;0.90;0.90;;;10.00;82.30;;;;;;4965068;28;20221;-79
2023/03/26 06:15:54;;;;;;;0.87;0.87;;;10.00;82.30;;;;;;4967535;28;20252;-79
2023/03/26 06:18:21;;;;;;;0.90;0.90;;;10.00;82.10;;;;;;4968250;28;20222;-80
2023/03/26 06:20:47;;;;;;;1.10;1.00;;;10.10;81.50;;;;;;4969232;28;20297;-81
2023/03/26 06:23:13;;;;;;;0.87;0.87;;;10.10;81.10;;;;;;4966360;28;20213;-80
2023/03/26 06:25:40;;;;;;;0.70;0.70;;;10.10;81.10;;;;;;4970020;28;20225;-79
2023/03/26 06:28:06;;;;;;;1.10;1.10;;;10.10;81.50;;;;;;4970172;28;20213;-80
2023/03/26 06:30:31;;;;;;;1.00;1.00;;;10.10;81.00;;;;;;4964474;28;20197;-78
2023/03/26 06:32:57;;;;;;;0.87;0.87;;;10.10;81.00;;;;;;4962676;28;20213;-80
2023/03/26 06:35:23;;;;;;;0.90;0.90;;;10.10;81.20;;;;;;4960163;28;20229;-80
2023/03/26 06:37:49;;;;;;;0.80;0.80;;;10.10;81.20;;;;;;4964100;28;20300;-80
2023/03/26 06:40:15;;;;;;;0.70;0.70;;;10.20;81.20;;;;;;4967171;28;20214;-81
2023/03/26 06:42:40;;;;;;;0.70;0.70;;;10.20;81.00;;;;;;4965500;28;21207;-83
2023/03/26 06:45:06;;;;;;;0.90;0.90;;;10.20;80.70;;;;;;4964721;28;20217;-76
2023/03/26 06:47:32;;;;;;;1.10;1.10;;;10.20;80.40;;;;;;4962582;28;20698;-77
2023/03/26 06:49:58;;;;;;;0.67;0.67;;;10.20;80.40;;;;;;4963535;28;20292;-78
2023/03/26 06:52:23;;;;;;;0.80;0.80;;;10.20;80.30;;;;;;4969534;28;20217;-77
2023/03/26 06:54:49;;;;;;;1.10;1.10;;;10.30;80.10;;;;;;4967021;28;20218;-76
2023/03/26 06:57:15;;;;;;;1.40;1.10;;;10.30;79.40;;;;;;4968660;28;20214;-75
2023/03/26 06:59:41;;;;;;;1.13;1.07;;;10.40;79.30;;;;;;4967361;28;20296;-75
2023/03/26 07:02:09;;;;;;;0.93;0.93;;;10.50;79.70;;;;;;4965382;28;20208;-74
2023/03/26 07:04:35;;;;;;;1.00;0.90;;;10.60;79.60;;;;;;4962748;28;20743;-79
2023/03/26 07:07:00;;;;;;;0.90;0.90;;;10.70;78.80;;;;;;4968592;28;20210;-81
2023/03/26 07:09:29;;;;;;;0.73;0.67;;;10.70;77.70;;;;;;4967684;28;21438;-80
2023/03/26 07:11:56;;;;;;;0.90;0.90;;;10.70;77.80;;;;;;4968502;28;20346;-83
2023/03/26 07:14:23;;;;;;;1.15;1.02;;;10.80;77.90;;;;;;4972111;28;20643;-79
2023/03/26 07:16:50;;;;;;;0.90;0.90;;;10.80;78.20;;;;;;4978486;28;20265;-79
2023/03/26 07:19:15;;;;;;;1.23;1.20;;;10.90;78.30;;;;;;4982914;28;20181;-79
2023/03/26 07:21:42;;;;;;;1.10;1.00;;;11.00;78.20;;;;;;4976105;28;20184;-79
2023/03/26 07:24:11;;;;;;;1.23;1.23;;;11.10;77.80;;;;;;4982011;28;20181;-78
2023/03/26 07:26:58;;;;;;;1.00;1.00;;;11.10;77.70;;;;;;4976476;28;20267;-79
2023/03/26 07:29:32;;;;;;;1.27;1.10;;;11.20;77.20;;;;;;4976754;28;20574;-78
2023/03/26 07:32:13;;;;;;;1.15;1.02;;;11.30;77.10;;;;;;4972210;28;20216;-75
2023/03/26 07:35:24;;;;;;;1.00;1.00;;;11.30;76.30;;;;;;4979540;28;20197;-79
2023/03/26 07:38:31;;;;;;;0.90;0.90;;;11.40;76.50;;;;;;4925881;29;20199;-79
2023/03/26 07:41:16;;;;;;;1.00;1.00;;;11.50;76.20;;;;;;4859500;29;20209;-78
2023/03/26 07:43:45;;;;;;;0.95;0.95;;;11.50;75.40;;;;;;4872628;29;20836;-78
2023/03/26 07:46:12;;;;;;;1.17;1.17;;;11.50;75.80;;;;;;4870028;29;20241;-78
2023/03/26 07:48:41;;;;;;;0.90;0.90;;;11.50;76.30;;;;;;4872010;29;20312;-79
2023/03/26 07:51:07;;;;;;;0.88;0.88;;;11.60;75.50;;;;;;4877581;29;20319;-79
2023/03/26 07:53:33;;;;;;;1.00;1.00;;;11.50;74.30;;;;;;4875070;29;20221;-78
2023/03/26 07:56:09;;;;;;;0.73;0.73;;;11.60;74.70;;;;;;4862003;29;20231;-78
2023/03/26 07:58:49;;;;;;;0.95;0.88;;;11.60;73.70;;;;;;4879668;29;20568;-77
2023/03/26 08:01:41;;;;;;;1.08;1.08;;;11.70;73.30;;;;;;4879616;29;20263;-79
2023/03/26 08:04:39;;;;;;;0.90;0.90;;;11.70;73.30;;;;;;4875241;29;20298;-76
2023/03/26 08:07:47;;;;;;;0.85;0.85;;;11.80;73.30;;;;;;4875899;29;20256;-78
2023/03/26 08:10:22;;;;;;;0.57;0.57;;;12.00;73.70;;;;;;4820517;29;20222;-74
2023/03/26 08:13:01;;;;;;;0.77;0.77;;;12.10;70.30;;;;;;4821981;29;20243;-77
2023/03/26 08:15:36;;;;;;;1.08;1.05;;;12.20;70.30;;;;;;4851608;29;20244;-76
2023/03/26 08:18:17;;;;;;;0.75;0.75;;;12.30;70.40;;;;;;4885079;29;20224;-77
2023/03/26 08:20:50;;;;;;;0.68;0.68;;;12.50;69.80;;;;;;4902919;29;20853;-77
2023/03/26 08:23:37;;;;;;;0.68;0.68;;;12.80;69.10;;;;;;4904461;29;20219;-76
2023/03/26 08:26:11;;;;;;;0.70;0.70;;;13.10;68.70;;;;;;4852182;29;20255;-78
2023/03/26 08:29:03;;;;;;;0.70;0.70;;;13.40;67.50;;;;;;4854304;29;20668;-77
2023/03/26 08:31:41;;;;;;;0.65;0.65;;;13.70;67.00;;;;;;4846014;29;20206;-76
2023/03/26 08:34:10;;;;;;;0.60;0.60;;;14.20;65.70;;;;;;4854117;29;20626;-76
2023/03/26 08:36:36;;;;;;;0.68;0.50;;;14.70;65.20;;;;;;4854106;29;20190;-76
2023/03/26 08:39:02;;;;;;;9.35;0.65;;;15.30;64.70;;;;;;4854029;29;20199;-79
2023/03/26 08:41:31;;;;;;;0.70;0.70;;;15.90;62.90;;;;;;4845077;29;20669;-76
2023/03/26 08:44:30;;;;;;;0.70;0.70;;;16.60;63.30;;;;;;4844452;29;20226;-76
2023/03/26 08:47:01;;;;;;;0.70;0.70;;;17.30;61.30;;;;;;4905780;29;20246;-77
2023/03/26 08:49:52;;;;;;;0.70;0.70;;;18.10;60.50;;;;;;4912920;29;20234;-77
2023/03/26 08:52:46;;;;;;;0.60;0.60;;;18.70;57.60;;;;;;4916903;29;20262;-77
2023/03/26 08:55:20;;;;;;;0.73;0.60;;;19.30;58.10;;;;;;4912730;29;20224;-77
2023/03/26 08:58:24;;;;;;;0.82;0.82;;;19.70;56.40;;;;;;4919182;29;20740;-78
2023/03/26 09:01:10;;;;;;;0.60;0.60;;;20.00;55.40;;;;;;4913836;29;20231;-78
2023/03/26 09:04:00;;;;;;;0.52;0.52;;;20.20;54.50;;;;;;4951036;28;20228;-78
2023/03/26 09:06:52;;;;;;;1.90;0.50;;;20.50;53.00;;;;;;4979991;28;20210;-77
2023/03/26 09:09:36;;;;;;;0.75;0.75;;;20.60;51.70;;;;;;4975335;28;20283;-77
2023/03/26 09:12:33;;;;;;;0.70;0.70;;;20.50;53.90;;;;;;4977310;28;20715;-77
2023/03/26 09:15:25;;;;;;;0.43;0.43;;;20.70;52.90;;;;;;4984976;28;20290;-79
2023/03/26 09:18:11;;;;;;;0.55;0.40;;;20.90;52.80;;;;;;4960876;28;20237;-78
2023/03/26 09:20:53;;;;;;;0.60;0.60;;;21.10;52.10;;;;;;4972243;28;20210;-78
2023/03/26 09:23:28;;;;;;;0.35;0.35;;;21.30;51.80;;;;;;4973960;28;20205;-78
2023/03/26 09:26:05;;;;;;;1.10;0.60;;;21.50;50.60;;;;;;4979559;28;20205;-79
2023/03/26 09:28:49;;;;;;;0.40;0.40;;;21.30;47.80;;;;;;4981031;28;20675;-78
2023/03/26 09:31:42;;;;;;;2.63;0.60;;;21.10;49.40;;;;;;4978282;28;20225;-79
2023/03/26 09:34:31;;;;;;;1.23;0.40;;;21.00;48.50;;;;;;4988436;28;20241;-79
2023/03/26 09:36:56;;;;;;;0.55;0.55;;;20.80;50.70;;;;;;4979613;28;20344;-77
2023/03/26 09:39:45;;;;;;;0.47;0.47;;;21.50;50.80;;;;;;4977650;28;20260;-78
2023/03/26 09:42:33;;;;;;;0.30;0.30;;;22.50;50.20;;;;;;4955180;28;20269;-77
2023/03/26 09:45:25;;;;;;;1.38;0.40;;;23.50;49.60;;;;;;4951668;28;20231;-77
2023/03/26 09:48:18;;;;;;;0.77;0.60;;;24.90;48.00;;;;;;4950892;28;20298;-77
2023/03/26 09:51:10;;;;;;;0.40;0.40;;;25.90;47.40;;;;;;4943838;28;20195;-78
2023/03/26 09:53:55;;;;;;;0.20;0.20;;;26.40;46.00;;;;;;4950799;28;20210;-76
2023/03/26 09:57:08;;;;;;;0.60;0.40;;;26.70;45.30;;;;;;4942061;28;20218;-78
2023/03/26 09:59:42;;;;;;;0.38;0.38;;;26.80;44.50;;;;;;4875029;29;20213;-75
2023/03/26 10:02:45;;;;;;;0.80;0.50;;;26.70;45.20;;;;;;4883329;29;20247;-75
2023/03/26 10:05:48;;;;;;;0.40;0.38;;;26.50;44.50;;;;;;4881260;29;20224;-78
2023/03/26 10:08:26;;;;;;;0.50;0.50;;;26.90;44.90;;;;;;4880525;29;20311;-75
2023/03/26 10:10:54;;;;;;;0.75;0.40;;;27.20;46.40;;;;;;4879503;29;20217;-77
2023/03/26 10:13:58;;;;;;;0.30;0.30;;;27.80;43.10;;;;;;4878846;29;20276;-78
2023/03/26 10:16:53;;;;;;;0.30;0.30;;;28.60;44.00;;;;;;4871650;29;20741;-76
2023/03/26 10:19:22;;;;;;;1.10;0.47;;;29.30;43.00;;;;;;4893713;29;20227;-77
2023/03/26 10:21:56;;;;;;;0.30;0.30;;;29.80;44.10;;;;;;4908495;29;20713;-76
2023/03/26 10:24:58;;;;;;;0.20;0.20;;;30.20;42.90;;;;;;4908570;29;20311;-81
2023/03/26 10:27:55;;;;;;;0.30;0.30;;;30.60;40.70;;;;;;4908622;29;20219;-77
2023/03/26 10:30:49;;;;;;;0.40;0.40;;;30.60;38.80;;;;;;4904384;29;20255;-77
2023/03/26 10:33:55;;;;;;;1.75;0.30;;;30.50;38.70;;;;;;4903839;29;20231;-77
2023/03/26 10:36:31;;;;;;;0.20;0.20;;;30.70;41.50;;;;;;4936056;28;20230;-81
2023/03/26 10:38:56;;;;;;;0.20;0.20;;;31.20;42.90;;;;;;4975073;28;20616;-81
2023/03/26 10:41:37;;;;;;;0.20;0.20;;;30.70;40.30;;;;;;4977822;28;20189;-81
2023/03/26 10:44:27;;;;;;;0.40;0.40;;;30.00;40.30;;;;;;4929919;28;1188173;-79
2023/03/26 10:46:59;;;;;;;0.25;0.25;;;29.60;40.40;;;;;;4968232;28;20198;-79
2023/03/26 10:49:47;;;;;;;1.40;0.43;;;29.60;41.70;;;;;;4980837;28;20201;-85
2023/03/26 10:52:19;;;;;;;0.22;0.22;;;29.80;41.60;;;;;;4965102;28;20217;-77
2023/03/26 10:55:10;;;;;;;0.20;0.20;;;30.40;43.40;;;;;;4970066;28;20664;-78
2023/03/26 10:58:20;;;;;;;0.20;0.20;;;30.90;37.70;;;;;;4970836;28;20266;-74
2023/03/26 11:01:00;;;;;;;0.20;0.20;;;30.70;38.30;;;;;;4945876;29;20179;-78
2023/03/26 11:03:44;;;;;;;0.25;0.25;;;29.70;38.60;;;;;;4943126;29;20241;-77
2023/03/26 11:06:18;;;;;;;0.10;0.10;;;29.20;38.60;;;;;;4943467;29;20282;-77
2023/03/26 11:08:54;;;;;;;0.22;0.20;;;29.30;41.10;;;;;;4942804;29;20695;-75
2023/03/26 11:11:41;;;;;;;0.20;0.20;;;29.70;42.50;;;;;;4944094;29;20206;-77
2023/03/26 11:14:38;;;;;;;0.20;0.20;;;30.40;41.10;;;;;;4916548;29;20195;-77
2023/03/26 11:17:20;;;;;;;0.80;0.13;;;30.70;38.20;;;;;;4917286;29;20794;-77
2023/03/26 11:20:14;;;;;;;0.10;0.10;;;30.70;38.00;;;;;;4918453;29;20875;-77
2023/03/26 11:23:17;;;;;;;0.25;0.25;;;30.80;36.40;;;;;;4920413;29;20255;-77
2023/03/26 11:25:57;;;;;;;0.15;0.13;;;30.70;38.20;;;;;;4920075;29;20234;-77
2023/03/26 11:28:41;;;;;;;0.57;0.20;;;31.00;39.80;;;;;;4913828;29;20275;-77
2023/03/26 11:31:34;;;;;;;0.20;0.20;;;31.20;36.70;;;;;;4923975;29;20187;-77
2023/03/26 11:34:05;;;;;;;0.40;0.40;;;31.00;37.00;;;;;;4937627;29;20188;-78
2023/03/26 11:36:45;;;;;;;0.25;0.25;;;30.50;38.90;;;;;;4934319;29;20187;-77
2023/03/26 11:39:14;;;;;;;0.32;0.30;;;30.00;37.90;;;;;;4936361;29;20714;-77
2023/03/26 11:41:40;;;;;;;0.20;0.20;;;29.70;40.00;;;;;;4934002;29;20192;-77
2023/03/26 11:44:29;;;;;;;0.13;0.13;;;29.70;39.00;;;;;;4934094;29;20345;-77
2023/03/26 11:47:03;;;;;;;0.13;0.13;;;30.00;39.00;;;;;;4936005;29;21001;-77
2023/03/26 11:49:29;;;;;;;0.20;0.20;;;30.50;41.10;;;;;;4936009;29;20650;-76
2023/03/26 11:51:55;;;;;;;0.20;0.20;;;30.50;37.10;;;;;;4974069;28;20213;-77
2023/03/26 11:54:21;;;;;;;0.20;0.20;;;30.20;38.70;;;;;;4977798;28;20225;-76
2023/03/26 11:56:49;;;;;;;0.20;0.20;;;30.10;39.90;;;;;;4977810;28;20202;-77
2023/03/26 11:59:17;;;;;;;0.20;0.20;;;30.30;39.30;;;;;;4979638;28;20186;-78
2023/03/26 12:01:51;;;;;;;0.30;0.30;;;30.30;40.30;;;;;;4979803;28;20194;-78
2023/03/26 12:04:33;;;;;;;0.15;0.15;;;30.30;40.10;;;;;;4974547;28;20688;-77
2023/03/26 12:07:20;;;;;;;0.30;0.30;;;29.80;37.30;;;;;;4979764;28;20209;-77
2023/03/26 12:09:55;;;;;;;0.17;0.17;;;29.40;37.00;;;;;;4980964;28;20184;-77
2023/03/26 12:12:37;;;;;;;0.40;0.15;;;29.10;38.80;;;;;;4979299;28;20296;-77
2023/03/26 12:15:03;;;;;;;0.20;0.20;;;28.80;37.60;;;;;;4981501;28;20349;-78
2023/03/26 12:17:35;;;;;;;0.98;0.15;;;28.30;38.50;;;;;;4979314;28;20181;-78
2023/03/26 12:20:22;;;;;;;0.20;0.20;;;28.00;38.40;;;;;;4980306;28;20193;-78
2023/03/26 12:22:48;;;;;;;0.10;0.10;;;28.00;37.90;;;;;;4975461;28;20182;-77
2023/03/26 12:25:21;;;;;;;0.20;0.20;;;27.90;38.60;;;;;;4977343;28;20206;-76
2023/03/26 12:28:01;;;;;;;0.10;0.10;;;27.60;38.20;;;;;;4978113;28;20723;-75
2023/03/26 12:30:38;;;;;;;0.10;0.10;;;27.60;38.60;;;;;;4976375;28;20173;-77
2023/03/26 12:33:15;;;;;;;0.20;0.20;;;27.70;38.30;;;;;;4974603;28;20194;-76
2023/03/26 12:35:41;;;;;;;0.20;0.20;;;28.10;40.00;;;;;;4981149;28;20173;-77
2023/03/26 12:38:32;;;;;;;0.10;0.10;;;28.60;38.50;;;;;;4975284;28;20197;-77
2023/03/26 12:41:07;;;;;;;0.10;0.10;;;29.00;36.00;;;;;;4978632;28;20190;-78
2023/03/26 12:43:39;;;;;;;0.10;0.10;;;29.30;37.20;;;;;;4975441;28;20193;-78
2023/03/26 12:46:30;;;;;;;0.10;0.10;;;29.60;37.60;;;;;;4981232;28;20759;-79
2023/03/26 12:49:07;;;;;;;0.00;0.00;;;30.00;36.00;;;;;;4981758;28;20277;-77
2023/03/26 12:51:48;;;;;;;0.10;0.10;;;30.30;34.30;;;;;;4979684;28;20177;-76
2023/03/26 12:54:15;;;;;;;0.10;0.10;;;30.00;34.90;;;;;;4978795;28;20188;-76
2023/03/26 12:56:49;;;;;;;0.15;0.15;;;29.80;34.90;;;;;;4980600;28;20683;-77
2023/03/26 12:59:31;;;;;;;2.33;0.10;;;29.70;36.10;;;;;;4979940;28;20675;-77
2023/03/26 13:02:31;;;;;;;0.10;0.10;;;29.80;35.30;;;;;;4978023;28;20332;-78
2023/03/26 13:05:35;;;;;;;2.28;0.17;;;29.90;34.10;;;;;;4976467;28;20308;-78
2023/03/26 13:08:13;;;;;;;0.10;0.10;;;29.80;34.50;;;;;;4980030;28;20174;-78
2023/03/26 13:10:59;;;;;;;0.20;0.20;;;29.50;34.60;;;;;;4979322;28;20178;-78
2023/03/26 13:13:30;;;;;;;0.10;0.10;;;29.40;36.90;;;;;;4981265;28;20202;-76
2023/03/26 13:16:10;;;;;;;0.10;0.10;;;29.10;36.80;;;;;;4983060;28;20189;-77
2023/03/26 13:19:06;;;;;;;0.10;0.10;;;28.70;37.30;;;;;;4981268;28;21013;-78
2023/03/26 13:21:44;;;;;;;0.10;0.10;;;28.60;35.70;;;;;;4978738;28;20750;-79
2023/03/26 13:24:09;;;;;;;0.20;0.20;;;28.70;36.80;;;;;;4978138;28;20206;-79